sensor_id;sensor_type;location;lat;lon;timestamp;temperature;humidity
17240;DHT22;9943;54.378;18.604;2022-10-16T00:02:26;12.50;99.90
17240;DHT22;9943;54.378;18.604;2022-10-16T00:05:15;12.40;99.90
17240;DHT22;9943;54.378;18.604;2022-10-16T00:07:53;12.40;99.90
17240;DHT22;9943;54.378;18.604;2022-10-16T00:10:25;12.40;99.90
17240;DHT22;9943;54.378;18.604;2022-10-16T00:13:03;12.40;99.90
17240;DHT22;9943;54.378;18.604;2022-10-16T00:15:41;12.50;99.90
17240;DHT22;9943;54.378;18.604;2022-10-16T00:18:12;12.50;99.90
17240;DHT22;9943;54.378;18.604;2022-10-16T00:21:26;12.50;99.90
17240;DHT22;9943;54.378;18.604;2022-10-16T00:24:02;12.60;99.90
17240;DHT22;9943;54.378;18.604;2022-10-16T00:26:38;12.60;99.90
17240;DHT22;9943;54.378;18.604;2022-10-16T00:29:13;12.70;99.90
17240;DHT22;9943;54.378;18.604;2022-10-16T00:31:54;12.70;99.90
17240;DHT22;9943;54.378;18.604;2022-10-16T00:34:28;12.70;99.90
17240;DHT22;9943;54.378;18.604;2022-10-16T00:37:00;12.60;99.90
17240;DHT22;9943;54.378;18.604;2022-10-16T00:39:36;12.70;99.90
17240;DHT22;9943;54.378;18.604;2022-10-16T00:42:09;12.70;99.90
17240;DHT22;9943;54.378;18.604;2022-10-16T00:44:45;12.80;99.90
17240;DHT22;9943;54.378;18.604;2022-10-16T00:47:32;12.90;99.90
17240;DHT22;9943;54.378;18.604;2022-10-16T00:50:38;13.00;99.90
17240;DHT22;9943;54.378;18.604;2022-10-16T00:53:13;13.10;99.90
17240;DHT22;9943;54.378;18.604;2022-10-16T00:55:54;13.00;99.90
17240;DHT22;9943;54.378;18.604;2022-10-16T00:58:28;13.20;99.90
17240;DHT22;9943;54.378;18.604;2022-10-16T01:00:58;13.20;99.90
17240;DHT22;9943;54.378;18.604;2022-10-16T01:03:36;13.40;99.90
17240;DHT22;9943;54.378;18.604;2022-10-16T01:06:22;13.30;99.90
17240;DHT22;9943;54.378;18.604;2022-10-16T01:09:14;13.50;99.90
17240;DHT22;9943;54.378;18.604;2022-10-16T01:11:54;13.50;99.90
17240;DHT22;9943;54.378;18.604;2022-10-16T01:14:45;13.50;99.90
17240;DHT22;9943;54.378;18.604;2022-10-16T01:17:31;13.60;99.90
17240;DHT22;9943;54.378;18.604;2022-10-16T01:20:24;13.70;99.90
17240;DHT22;9943;54.378;18.604;2022-10-16T01:23:04;13.80;99.90
17240;DHT22;9943;54.378;18.604;2022-10-16T01:25:46;13.80;99.90
17240;DHT22;9943;54.378;18.604;2022-10-16T01:28:24;13.90;99.90
17240;DHT22;9943;54.378;18.604;2022-10-16T01:30:58;14.00;99.90
17240;DHT22;9943;54.378;18.604;2022-10-16T01:33:37;14.00;99.90
17240;DHT22;9943;54.378;18.604;2022-10-16T01:36:13;14.00;99.90
17240;DHT22;9943;54.378;18.604;2022-10-16T01:38:51;14.00;99.90
17240;DHT22;9943;54.378;18.604;2022-10-16T01:41:30;14.00;99.90
17240;DHT22;9943;54.378;18.604;2022-10-16T01:44:13;14.00;99.90
17240;DHT22;9943;54.378;18.604;2022-10-16T01:46:46;14.10;99.90
17240;DHT22;9943;54.378;18.604;2022-10-16T01:49:21;14.10;99.90
17240;DHT22;9943;54.378;18.604;2022-10-16T01:52:15;14.10;99.90
17240;DHT22;9943;54.378;18.604;2022-10-16T01:55:02;14.20;99.90
17240;DHT22;9943;54.378;18.604;2022-10-16T01:57:51;14.20;99.90
17240;DHT22;9943;54.378;18.604;2022-10-16T02:00:34;14.30;99.90
17240;DHT22;9943;54.378;18.604;2022-10-16T02:03:12;14.40;99.90
17240;DHT22;9943;54.378;18.604;2022-10-16T02:05:50;14.40;99.90
17240;DHT22;9943;54.378;18.604;2022-10-16T02:09:00;14.50;99.90
17240;DHT22;9943;54.378;18.604;2022-10-16T02:11:36;14.60;99.90
17240;DHT22;9943;54.378;18.604;2022-10-16T02:14:10;14.50;99.90
17240;DHT22;9943;54.378;18.604;2022-10-16T02:16:46;14.50;99.90
17240;DHT22;9943;54.378;18.604;2022-10-16T02:19:20;14.50;99.90
17240;DHT22;9943;54.378;18.604;2022-10-16T02:21:56;14.40;99.90
17240;DHT22;9943;54.378;18.604;2022-10-16T02:24:47;14.40;99.90
17240;DHT22;9943;54.378;18.604;2022-10-16T02:27:30;14.30;99.90
17240;DHT22;9943;54.378;18.604;2022-10-16T02:30:07;14.40;99.90
17240;DHT22;9943;54.378;18.604;2022-10-16T02:32:49;14.20;99.90
17240;DHT22;9943;54.378;18.604;2022-10-16T02:35:23;14.10;99.90
17240;DHT22;9943;54.378;18.604;2022-10-16T02:37:59;14.20;99.90
17240;DHT22;9943;54.378;18.604;2022-10-16T02:40:34;14.10;99.90
17240;DHT22;9943;54.378;18.604;2022-10-16T02:43:07;14.00;99.90
17240;DHT22;9943;54.378;18.604;2022-10-16T02:45:39;14.00;99.90
17240;DHT22;9943;54.378;18.604;2022-10-16T02:52:01;13.90;99.90
17240;DHT22;9943;54.378;18.604;2022-10-16T02:54:42;13.90;99.90
17240;DHT22;9943;54.378;18.604;2022-10-16T02:57:11;13.90;99.90
17240;DHT22;9943;54.378;18.604;2022-10-16T02:59:43;13.90;99.90
17240;DHT22;9943;54.378;18.604;2022-10-16T03:02:17;13.80;99.90
17240;DHT22;9943;54.378;18.604;2022-10-16T03:04:47;13.90;99.90
17240;DHT22;9943;54.378;18.604;2022-10-16T03:07:26;13.80;99.90
17240;DHT22;9943;54.378;18.604;2022-10-16T03:10:03;13.80;99.90
17240;DHT22;9943;54.378;18.604;2022-10-16T03:12:40;13.90;99.90
17240;DHT22;9943;54.378;18.604;2022-10-16T03:15:12;13.90;99.90
17240;DHT22;9943;54.378;18.604;2022-10-16T03:18:07;13.90;99.90
17240;DHT22;9943;54.378;18.604;2022-10-16T03:20:41;13.90;99.90
17240;DHT22;9943;54.378;18.604;2022-10-16T03:23:28;13.90;99.90
17240;DHT22;9943;54.378;18.604;2022-10-16T03:26:13;13.90;99.90
17240;DHT22;9943;54.378;18.604;2022-10-16T03:28:50;13.80;99.90
17240;DHT22;9943;54.378;18.604;2022-10-16T03:31:26;13.80;99.90
17240;DHT22;9943;54.378;18.604;2022-10-16T03:34:01;13.90;99.90
17240;DHT22;9943;54.378;18.604;2022-10-16T03:36:34;13.90;99.90
17240;DHT22;9943;54.378;18.604;2022-10-16T03:43:23;14.10;99.90
17240;DHT22;9943;54.378;18.604;2022-10-16T03:46:15;14.10;99.90
17240;DHT22;9943;54.378;18.604;2022-10-16T03:48:51;14.00;99.90
17240;DHT22;9943;54.378;18.604;2022-10-16T03:51:35;14.10;99.90
17240;DHT22;9943;54.378;18.604;2022-10-16T03:54:06;14.20;99.90
17240;DHT22;9943;54.378;18.604;2022-10-16T03:56:53;14.20;99.90
17240;DHT22;9943;54.378;18.604;2022-10-16T03:59:28;14.40;99.90
17240;DHT22;9943;54.378;18.604;2022-10-16T04:02:01;14.20;99.90
17240;DHT22;9943;54.378;18.604;2022-10-16T04:04:34;14.30;99.90
17240;DHT22;9943;54.378;18.604;2022-10-16T04:07:12;14.30;99.90
17240;DHT22;9943;54.378;18.604;2022-10-16T04:10:01;14.30;99.90
17240;DHT22;9943;54.378;18.604;2022-10-16T04:12:49;14.30;99.90
17240;DHT22;9943;54.378;18.604;2022-10-16T04:15:22;14.30;99.90
17240;DHT22;9943;54.378;18.604;2022-10-16T04:18:03;14.30;99.90
17240;DHT22;9943;54.378;18.604;2022-10-16T04:20:47;14.30;99.90
17240;DHT22;9943;54.378;18.604;2022-10-16T04:23:27;14.30;99.90
17240;DHT22;9943;54.378;18.604;2022-10-16T04:26:22;14.30;99.90
17240;DHT22;9943;54.378;18.604;2022-10-16T04:28:58;14.30;99.90
17240;DHT22;9943;54.378;18.604;2022-10-16T04:31:31;14.30;99.90
17240;DHT22;9943;54.378;18.604;2022-10-16T04:34:18;14.20;99.90
17240;DHT22;9943;54.378;18.604;2022-10-16T04:36:51;14.30;99.90
17240;DHT22;9943;54.378;18.604;2022-10-16T04:39:44;14.30;99.90
17240;DHT22;9943;54.378;18.604;2022-10-16T04:42:14;14.20;99.90
17240;DHT22;9943;54.378;18.604;2022-10-16T04:44:45;14.30;99.90
17240;DHT22;9943;54.378;18.604;2022-10-16T04:47:30;14.30;99.90
17240;DHT22;9943;54.378;18.604;2022-10-16T04:50:01;14.20;99.90
17240;DHT22;9943;54.378;18.604;2022-10-16T04:52:49;14.30;99.90
17240;DHT22;9943;54.378;18.604;2022-10-16T04:55:27;14.20;99.90
17240;DHT22;9943;54.378;18.604;2022-10-16T04:58:01;14.20;99.90
17240;DHT22;9943;54.378;18.604;2022-10-16T05:00:39;14.20;99.90
17240;DHT22;9943;54.378;18.604;2022-10-16T05:03:15;14.10;99.90
17240;DHT22;9943;54.378;18.604;2022-10-16T05:05:50;14.10;99.90
17240;DHT22;9943;54.378;18.604;2022-10-16T05:08:20;14.10;99.90
17240;DHT22;9943;54.378;18.604;2022-10-16T05:10:49;14.10;99.90
17240;DHT22;9943;54.378;18.604;2022-10-16T05:13:21;14.10;99.90
17240;DHT22;9943;54.378;18.604;2022-10-16T05:16:08;14.10;99.90
17240;DHT22;9943;54.378;18.604;2022-10-16T05:18:38;14.00;99.90
17240;DHT22;9943;54.378;18.604;2022-10-16T05:21:09;14.10;99.90
17240;DHT22;9943;54.378;18.604;2022-10-16T05:23:39;14.00;99.90
17240;DHT22;9943;54.378;18.604;2022-10-16T05:26:40;14.10;99.90
17240;DHT22;9943;54.378;18.604;2022-10-16T05:29:14;14.00;99.90
17240;DHT22;9943;54.378;18.604;2022-10-16T05:31:46;14.10;99.90
17240;DHT22;9943;54.378;18.604;2022-10-16T05:34:20;14.10;99.90
17240;DHT22;9943;54.378;18.604;2022-10-16T05:36:49;14.10;99.90
17240;DHT22;9943;54.378;18.604;2022-10-16T05:39:20;14.10;99.90
17240;DHT22;9943;54.378;18.604;2022-10-16T05:41:54;14.20;99.90
17240;DHT22;9943;54.378;18.604;2022-10-16T05:44:35;14.20;99.90
17240;DHT22;9943;54.378;18.604;2022-10-16T05:47:10;14.20;99.90
17240;DHT22;9943;54.378;18.604;2022-10-16T05:49:49;14.30;99.90
17240;DHT22;9943;54.378;18.604;2022-10-16T05:52:28;14.20;99.90
17240;DHT22;9943;54.378;18.604;2022-10-16T05:55:10;14.30;99.90
17240;DHT22;9943;54.378;18.604;2022-10-16T05:57:41;14.70;99.90
17240;DHT22;9943;54.378;18.604;2022-10-16T06:00:11;14.30;99.90
17240;DHT22;9943;54.378;18.604;2022-10-16T06:02:55;14.30;99.90
17240;DHT22;9943;54.378;18.604;2022-10-16T06:05:40;14.30;99.90
17240;DHT22;9943;54.378;18.604;2022-10-16T06:08:24;14.40;99.90
17240;DHT22;9943;54.378;18.604;2022-10-16T06:11:18;14.40;99.90
17240;DHT22;9943;54.378;18.604;2022-10-16T06:13:52;14.40;99.90
17240;DHT22;9943;54.378;18.604;2022-10-16T06:16:23;14.50;99.90
17240;DHT22;9943;54.378;18.604;2022-10-16T06:19:03;14.40;99.90
17240;DHT22;9943;54.378;18.604;2022-10-16T06:21:39;14.40;99.90
17240;DHT22;9943;54.378;18.604;2022-10-16T06:24:28;14.40;99.90
17240;DHT22;9943;54.378;18.604;2022-10-16T06:26:59;14.50;99.90
17240;DHT22;9943;54.378;18.604;2022-10-16T06:29:50;14.60;99.90
17240;DHT22;9943;54.378;18.604;2022-10-16T06:32:29;14.60;99.90
17240;DHT22;9943;54.378;18.604;2022-10-16T06:35:15;14.50;99.90
17240;DHT22;9943;54.378;18.604;2022-10-16T06:37:52;14.60;99.90
17240;DHT22;9943;54.378;18.604;2022-10-16T06:40:24;14.30;99.90
17240;DHT22;9943;54.378;18.604;2022-10-16T06:43:01;14.50;99.90
17240;DHT22;9943;54.378;18.604;2022-10-16T06:45:34;14.70;99.90
17240;DHT22;9943;54.378;18.604;2022-10-16T06:48:03;14.70;99.90
17240;DHT22;9943;54.378;18.604;2022-10-16T06:50:42;14.60;99.90
17240;DHT22;9943;54.378;18.604;2022-10-16T06:53:12;14.70;99.90
17240;DHT22;9943;54.378;18.604;2022-10-16T06:55:41;14.70;99.90
17240;DHT22;9943;54.378;18.604;2022-10-16T06:58:22;14.60;99.90
17240;DHT22;9943;54.378;18.604;2022-10-16T07:00:56;14.70;99.90
17240;DHT22;9943;54.378;18.604;2022-10-16T07:03:30;14.60;99.90
17240;DHT22;9943;54.378;18.604;2022-10-16T07:06:24;14.60;99.90
17240;DHT22;9943;54.378;18.604;2022-10-16T07:09:05;13.90;99.90
17240;DHT22;9943;54.378;18.604;2022-10-16T07:11:55;14.50;99.90
17240;DHT22;9943;54.378;18.604;2022-10-16T07:14:32;14.40;99.90
17240;DHT22;9943;54.378;18.604;2022-10-16T07:17:01;14.50;99.90
17240;DHT22;9943;54.378;18.604;2022-10-16T07:19:35;14.60;99.90
17240;DHT22;9943;54.378;18.604;2022-10-16T07:22:31;14.60;99.90
17240;DHT22;9943;54.378;18.604;2022-10-16T07:25:04;14.80;99.90
17240;DHT22;9943;54.378;18.604;2022-10-16T07:27:34;14.70;99.90
17240;DHT22;9943;54.378;18.604;2022-10-16T07:30:07;14.50;99.90
17240;DHT22;9943;54.378;18.604;2022-10-16T07:32:41;14.80;99.90
17240;DHT22;9943;54.378;18.604;2022-10-16T07:35:11;14.70;99.90
17240;DHT22;9943;54.378;18.604;2022-10-16T07:37:58;14.90;99.90
17240;DHT22;9943;54.378;18.604;2022-10-16T07:40:31;14.90;99.90
17240;DHT22;9943;54.378;18.604;2022-10-16T07:43:00;15.10;99.90
17240;DHT22;9943;54.378;18.604;2022-10-16T07:45:50;14.80;99.90
17240;DHT22;9943;54.378;18.604;2022-10-16T07:48:20;14.90;99.90
17240;DHT22;9943;54.378;18.604;2022-10-16T07:50:58;14.90;99.90
17240;DHT22;9943;54.378;18.604;2022-10-16T07:53:33;14.80;99.90
17240;DHT22;9943;54.378;18.604;2022-10-16T07:56:07;14.80;99.90
17240;DHT22;9943;54.378;18.604;2022-10-16T07:58:43;14.90;99.90
17240;DHT22;9943;54.378;18.604;2022-10-16T08:01:21;14.70;99.90
17240;DHT22;9943;54.378;18.604;2022-10-16T08:04:21;15.00;99.90
17240;DHT22;9943;54.378;18.604;2022-10-16T08:06:52;15.00;99.90
17240;DHT22;9943;54.378;18.604;2022-10-16T08:09:32;15.10;99.90
17240;DHT22;9943;54.378;18.604;2022-10-16T08:12:12;15.10;99.90
17240;DHT22;9943;54.378;18.604;2022-10-16T08:14:58;15.20;99.90
17240;DHT22;9943;54.378;18.604;2022-10-16T08:17:42;15.20;99.90
17240;DHT22;9943;54.378;18.604;2022-10-16T08:20:26;15.30;99.90
17240;DHT22;9943;54.378;18.604;2022-10-16T08:23:06;15.40;99.90
17240;DHT22;9943;54.378;18.604;2022-10-16T08:25:43;15.40;99.90
17240;DHT22;9943;54.378;18.604;2022-10-16T08:28:15;15.40;99.90
17240;DHT22;9943;54.378;18.604;2022-10-16T08:30:49;15.40;99.90
17240;DHT22;9943;54.378;18.604;2022-10-16T08:33:32;15.40;99.90
17240;DHT22;9943;54.378;18.604;2022-10-16T08:36:06;15.30;99.90
17240;DHT22;9943;54.378;18.604;2022-10-16T08:38:50;14.70;99.90
17240;DHT22;9943;54.378;18.604;2022-10-16T08:48:18;15.40;99.90
17240;DHT22;9943;54.378;18.604;2022-10-16T08:50:55;15.40;99.90
17240;DHT22;9943;54.378;18.604;2022-10-16T08:53:30;15.40;99.90
17240;DHT22;9943;54.378;18.604;2022-10-16T08:56:35;14.40;99.90
17240;DHT22;9943;54.378;18.604;2022-10-16T08:59:10;15.50;99.90
17240;DHT22;9943;54.378;18.604;2022-10-16T09:01:43;15.50;99.90
17240;DHT22;9943;54.378;18.604;2022-10-16T09:04:46;15.60;99.90
17240;DHT22;9943;54.378;18.604;2022-10-16T09:07:28;15.50;99.90
17240;DHT22;9943;54.378;18.604;2022-10-16T09:10:15;15.90;99.90
17240;DHT22;9943;54.378;18.604;2022-10-16T09:12:55;15.50;99.90
17240;DHT22;9943;54.378;18.604;2022-10-16T09:15:34;15.60;99.90
17240;DHT22;9943;54.378;18.604;2022-10-16T09:18:15;15.60;99.90
17240;DHT22;9943;54.378;18.604;2022-10-16T09:20:58;15.70;99.90
17240;DHT22;9943;54.378;18.604;2022-10-16T09:23:39;15.80;99.90
17240;DHT22;9943;54.378;18.604;2022-10-16T09:26:27;15.80;99.90
17240;DHT22;9943;54.378;18.604;2022-10-16T09:29:20;15.40;99.90
17240;DHT22;9943;54.378;18.604;2022-10-16T09:32:07;15.80;99.90
17240;DHT22;9943;54.378;18.604;2022-10-16T09:34:48;15.90;99.90
17240;DHT22;9943;54.378;18.604;2022-10-16T09:37:26;15.80;99.90
17240;DHT22;9943;54.378;18.604;2022-10-16T09:44:23;15.80;99.90
17240;DHT22;9943;54.378;18.604;2022-10-16T09:47:05;15.80;99.90
17240;DHT22;9943;54.378;18.604;2022-10-16T09:49:37;15.90;99.90
17240;DHT22;9943;54.378;18.604;2022-10-16T09:52:22;15.80;99.90
17240;DHT22;9943;54.378;18.604;2022-10-16T09:55:14;15.90;99.90
17240;DHT22;9943;54.378;18.604;2022-10-16T09:58:00;15.80;99.90
17240;DHT22;9943;54.378;18.604;2022-10-16T10:00:39;16.60;99.90
17240;DHT22;9943;54.378;18.604;2022-10-16T10:03:40;15.70;99.90
17240;DHT22;9943;54.378;18.604;2022-10-16T10:06:28;15.80;99.90
17240;DHT22;9943;54.378;18.604;2022-10-16T10:09:06;15.90;99.90
17240;DHT22;9943;54.378;18.604;2022-10-16T10:11:49;15.80;99.90
17240;DHT22;9943;54.378;18.604;2022-10-16T10:14:32;15.80;99.90
17240;DHT22;9943;54.378;18.604;2022-10-16T10:17:17;15.70;99.90
17240;DHT22;9943;54.378;18.604;2022-10-16T10:19:58;15.90;99.90
17240;DHT22;9943;54.378;18.604;2022-10-16T10:22:41;15.90;99.90
17240;DHT22;9943;54.378;18.604;2022-10-16T10:25:41;15.90;99.90
17240;DHT22;9943;54.378;18.604;2022-10-16T10:28:29;16.00;99.90
17240;DHT22;9943;54.378;18.604;2022-10-16T10:31:16;16.60;99.90
17240;DHT22;9943;54.378;18.604;2022-10-16T10:33:54;15.90;99.90
17240;DHT22;9943;54.378;18.604;2022-10-16T10:36:37;16.00;99.90
17240;DHT22;9943;54.378;18.604;2022-10-16T10:39:12;16.10;99.90
17240;DHT22;9943;54.378;18.604;2022-10-16T10:42:08;15.10;99.90
17240;DHT22;9943;54.378;18.604;2022-10-16T10:48:17;16.30;99.90
17240;DHT22;9943;54.378;18.604;2022-10-16T10:50:55;16.20;99.90
17240;DHT22;9943;54.378;18.604;2022-10-16T10:53:37;16.40;99.90
17240;DHT22;9943;54.378;18.604;2022-10-16T10:56:27;16.20;99.90
17240;DHT22;9943;54.378;18.604;2022-10-16T11:03:17;16.30;99.90
17240;DHT22;9943;54.378;18.604;2022-10-16T11:05:52;16.40;99.90
17240;DHT22;9943;54.378;18.604;2022-10-16T11:08:32;16.50;99.90
17240;DHT22;9943;54.378;18.604;2022-10-16T11:11:04;16.80;99.90
17240;DHT22;9943;54.378;18.604;2022-10-16T11:13:44;16.70;99.90
17240;DHT22;9943;54.378;18.604;2022-10-16T11:16:28;16.90;99.90
17240;DHT22;9943;54.378;18.604;2022-10-16T11:19:22;16.90;99.90
17240;DHT22;9943;54.378;18.604;2022-10-16T11:22:15;17.30;99.90
17240;DHT22;9943;54.378;18.604;2022-10-16T11:24:55;17.60;99.90
17240;DHT22;9943;54.378;18.604;2022-10-16T11:27:44;18.10;99.90
17240;DHT22;9943;54.378;18.604;2022-10-16T11:30:26;17.80;99.90
17240;DHT22;9943;54.378;18.604;2022-10-16T11:33:21;17.90;99.90
17240;DHT22;9943;54.378;18.604;2022-10-16T11:36:38;17.90;99.90
17240;DHT22;9943;54.378;18.604;2022-10-16T11:39:21;18.00;99.90
17240;DHT22;9943;54.378;18.604;2022-10-16T11:42:03;18.00;99.90
17240;DHT22;9943;54.378;18.604;2022-10-16T11:44:48;17.30;99.90
17240;DHT22;9943;54.378;18.604;2022-10-16T11:47:33;17.70;99.90
17240;DHT22;9943;54.378;18.604;2022-10-16T11:50:34;17.80;99.90
17240;DHT22;9943;54.378;18.604;2022-10-16T11:56:41;17.70;99.90
17240;DHT22;9943;54.378;18.604;2022-10-16T11:59:21;17.90;99.90
17240;DHT22;9943;54.378;18.604;2022-10-16T12:02:07;17.80;99.90
17240;DHT22;9943;54.378;18.604;2022-10-16T12:04:50;17.80;99.90
17240;DHT22;9943;54.378;18.604;2022-10-16T12:07:32;17.70;99.90
17240;DHT22;9943;54.378;18.604;2022-10-16T12:10:20;17.80;99.90
17240;DHT22;9943;54.378;18.604;2022-10-16T12:13:00;18.10;99.90
17240;DHT22;9943;54.378;18.604;2022-10-16T12:15:33;18.40;99.90
17240;DHT22;9943;54.378;18.604;2022-10-16T12:18:28;18.50;99.90
17240;DHT22;9943;54.378;18.604;2022-10-16T12:21:31;18.70;99.90
17240;DHT22;9943;54.378;18.604;2022-10-16T12:27:38;18.90;99.90
17240;DHT22;9943;54.378;18.604;2022-10-16T12:30:30;18.80;99.90
17240;DHT22;9943;54.378;18.604;2022-10-16T12:33:19;18.90;99.90
17240;DHT22;9943;54.378;18.604;2022-10-16T12:36:10;19.00;99.90
17240;DHT22;9943;54.378;18.604;2022-10-16T12:38:48;19.20;99.90
17240;DHT22;9943;54.378;18.604;2022-10-16T12:41:29;19.60;99.90
17240;DHT22;9943;54.378;18.604;2022-10-16T12:44:24;18.90;99.90
17240;DHT22;9943;54.378;18.604;2022-10-16T12:47:23;18.80;99.90
17240;DHT22;9943;54.378;18.604;2022-10-16T12:50:01;18.60;99.90
17240;DHT22;9943;54.378;18.604;2022-10-16T12:52:49;18.40;99.90
17240;DHT22;9943;54.378;18.604;2022-10-16T12:55:31;18.50;99.90
17240;DHT22;9943;54.378;18.604;2022-10-16T12:58:12;18.50;99.90
17240;DHT22;9943;54.378;18.604;2022-10-16T13:00:45;18.50;99.90
17240;DHT22;9943;54.378;18.604;2022-10-16T13:07:35;18.60;99.90
17240;DHT22;9943;54.378;18.604;2022-10-16T13:10:19;18.70;99.90
17240;DHT22;9943;54.378;18.604;2022-10-16T13:13:04;18.80;99.90
17240;DHT22;9943;54.378;18.604;2022-10-16T13:15:51;18.90;99.90
17240;DHT22;9943;54.378;18.604;2022-10-16T13:18:33;19.00;99.90
17240;DHT22;9943;54.378;18.604;2022-10-16T13:21:25;19.10;99.90
17240;DHT22;9943;54.378;18.604;2022-10-16T13:28:13;19.00;99.90
17240;DHT22;9943;54.378;18.604;2022-10-16T13:34:45;18.30;99.90
17240;DHT22;9943;54.378;18.604;2022-10-16T13:37:24;18.40;99.90
17240;DHT22;9943;54.378;18.604;2022-10-16T13:40:18;18.20;99.90
17240;DHT22;9943;54.378;18.604;2022-10-16T13:46:15;18.00;99.90
17240;DHT22;9943;54.378;18.604;2022-10-16T13:48:57;18.10;99.90
17240;DHT22;9943;54.378;18.604;2022-10-16T13:51:36;18.10;99.90
17240;DHT22;9943;54.378;18.604;2022-10-16T13:54:12;18.10;99.90
17240;DHT22;9943;54.378;18.604;2022-10-16T13:57:12;18.60;99.90
17240;DHT22;9943;54.378;18.604;2022-10-16T13:59:43;18.00;99.90
17240;DHT22;9943;54.378;18.604;2022-10-16T14:02:33;17.90;99.90
17240;DHT22;9943;54.378;18.604;2022-10-16T14:05:14;18.00;99.90
17240;DHT22;9943;54.378;18.604;2022-10-16T14:07:51;17.90;99.90
17240;DHT22;9943;54.378;18.604;2022-10-16T14:10:26;17.90;99.90
17240;DHT22;9943;54.378;18.604;2022-10-16T14:13:14;17.80;99.90
17240;DHT22;9943;54.378;18.604;2022-10-16T14:15:49;17.90;99.90
17240;DHT22;9943;54.378;18.604;2022-10-16T14:18:27;17.90;99.90
17240;DHT22;9943;54.378;18.604;2022-10-16T14:21:04;17.80;99.90
17240;DHT22;9943;54.378;18.604;2022-10-16T14:23:39;17.90;99.90
17240;DHT22;9943;54.378;18.604;2022-10-16T14:26:19;17.30;99.90
17240;DHT22;9943;54.378;18.604;2022-10-16T14:29:12;17.10;99.90
17240;DHT22;9943;54.378;18.604;2022-10-16T14:31:58;17.80;99.90
17240;DHT22;9943;54.378;18.604;2022-10-16T14:37:36;17.70;99.90
17240;DHT22;9943;54.378;18.604;2022-10-16T14:40:16;17.80;99.90
17240;DHT22;9943;54.378;18.604;2022-10-16T14:42:55;17.70;99.90
17240;DHT22;9943;54.378;18.604;2022-10-16T14:45:32;17.60;99.90
17240;DHT22;9943;54.378;18.604;2022-10-16T14:48:15;17.60;99.90
17240;DHT22;9943;54.378;18.604;2022-10-16T14:50:53;17.60;99.90
17240;DHT22;9943;54.378;18.604;2022-10-16T14:53:27;17.60;99.90
17240;DHT22;9943;54.378;18.604;2022-10-16T14:56:07;17.50;99.90
17240;DHT22;9943;54.378;18.604;2022-10-16T14:59:11;17.40;99.90
17240;DHT22;9943;54.378;18.604;2022-10-16T15:01:50;17.60;99.90
17240;DHT22;9943;54.378;18.604;2022-10-16T15:04:25;17.30;99.90
17240;DHT22;9943;54.378;18.604;2022-10-16T15:06:58;15.80;99.90
17240;DHT22;9943;54.378;18.604;2022-10-16T15:09:39;17.30;99.90
17240;DHT22;9943;54.378;18.604;2022-10-16T15:12:14;17.10;99.90
17240;DHT22;9943;54.378;18.604;2022-10-16T15:14:47;17.10;99.90
17240;DHT22;9943;54.378;18.604;2022-10-16T15:17:21;15.40;99.90
17240;DHT22;9943;54.378;18.604;2022-10-16T15:19:58;16.90;99.90
17240;DHT22;9943;54.378;18.604;2022-10-16T15:22:48;16.90;99.90
17240;DHT22;9943;54.378;18.604;2022-10-16T15:25:44;16.80;99.90
17240;DHT22;9943;54.378;18.604;2022-10-16T15:28:21;16.90;99.90
17240;DHT22;9943;54.378;18.604;2022-10-16T15:31:00;16.60;99.90
17240;DHT22;9943;54.378;18.604;2022-10-16T15:33:35;16.60;99.90
17240;DHT22;9943;54.378;18.604;2022-10-16T15:36:20;16.50;99.90
17240;DHT22;9943;54.378;18.604;2022-10-16T15:39:05;16.40;99.90
17240;DHT22;9943;54.378;18.604;2022-10-16T15:41:57;16.30;99.90
17240;DHT22;9943;54.378;18.604;2022-10-16T15:44:42;16.40;99.90
17240;DHT22;9943;54.378;18.604;2022-10-16T15:47:13;16.30;99.90
17240;DHT22;9943;54.378;18.604;2022-10-16T15:49:51;16.10;99.90
17240;DHT22;9943;54.378;18.604;2022-10-16T15:52:27;16.00;99.90
17240;DHT22;9943;54.378;18.604;2022-10-16T15:55:13;16.10;99.90
17240;DHT22;9943;54.378;18.604;2022-10-16T15:58:16;15.90;99.90
17240;DHT22;9943;54.378;18.604;2022-10-16T16:01:11;15.50;99.90
17240;DHT22;9943;54.378;18.604;2022-10-16T16:03:56;15.90;99.90
17240;DHT22;9943;54.378;18.604;2022-10-16T16:06:26;15.90;99.90
17240;DHT22;9943;54.378;18.604;2022-10-16T16:09:01;16.50;99.90
17240;DHT22;9943;54.378;18.604;2022-10-16T16:11:50;15.80;99.90
17240;DHT22;9943;54.378;18.604;2022-10-16T16:14:48;15.70;99.90
17240;DHT22;9943;54.378;18.604;2022-10-16T16:17:37;15.70;99.90
17240;DHT22;9943;54.378;18.604;2022-10-16T16:20:21;15.60;99.90
17240;DHT22;9943;54.378;18.604;2022-10-16T16:22:59;15.60;99.90
17240;DHT22;9943;54.378;18.604;2022-10-16T16:25:43;16.50;99.90
17240;DHT22;9943;54.378;18.604;2022-10-16T16:28:16;16.00;99.90
17240;DHT22;9943;54.378;18.604;2022-10-16T16:30:59;15.40;99.90
17240;DHT22;9943;54.378;18.604;2022-10-16T16:33:50;15.50;99.90
17240;DHT22;9943;54.378;18.604;2022-10-16T16:36:32;15.40;99.90
17240;DHT22;9943;54.378;18.604;2022-10-16T16:39:03;15.30;99.90
17240;DHT22;9943;54.378;18.604;2022-10-16T16:41:46;13.80;99.90
17240;DHT22;9943;54.378;18.604;2022-10-16T16:44:25;15.10;99.90
17240;DHT22;9943;54.378;18.604;2022-10-16T16:47:00;15.10;99.90
17240;DHT22;9943;54.378;18.604;2022-10-16T16:49:39;15.20;99.90
17240;DHT22;9943;54.378;18.604;2022-10-16T16:52:28;15.00;99.90
17240;DHT22;9943;54.378;18.604;2022-10-16T16:55:18;15.10;99.90
17240;DHT22;9943;54.378;18.604;2022-10-16T16:58:16;15.00;99.90
17240;DHT22;9943;54.378;18.604;2022-10-16T17:01:01;15.10;99.90
17240;DHT22;9943;54.378;18.604;2022-10-16T17:03:57;14.60;99.90
17240;DHT22;9943;54.378;18.604;2022-10-16T17:06:33;15.00;99.90
17240;DHT22;9943;54.378;18.604;2022-10-16T17:09:07;15.00;99.90
17240;DHT22;9943;54.378;18.604;2022-10-16T17:11:44;15.00;99.90
17240;DHT22;9943;54.378;18.604;2022-10-16T17:14:39;15.00;99.90
17240;DHT22;9943;54.378;18.604;2022-10-16T17:17:09;15.50;99.90
17240;DHT22;9943;54.378;18.604;2022-10-16T17:34:35;14.80;99.90
17240;DHT22;9943;54.378;18.604;2022-10-16T17:37:26;14.80;99.90
17240;DHT22;9943;54.378;18.604;2022-10-16T17:40:16;14.80;99.90
17240;DHT22;9943;54.378;18.604;2022-10-16T17:42:55;14.80;99.90
17240;DHT22;9943;54.378;18.604;2022-10-16T17:45:35;14.90;99.90
17240;DHT22;9943;54.378;18.604;2022-10-16T17:48:36;14.70;99.90
17240;DHT22;9943;54.378;18.604;2022-10-16T17:51:25;14.80;99.90
17240;DHT22;9943;54.378;18.604;2022-10-16T17:54:05;15.10;99.90
17240;DHT22;9943;54.378;18.604;2022-10-16T17:56:50;14.70;99.90
17240;DHT22;9943;54.378;18.604;2022-10-16T17:59:22;14.70;99.90
17240;DHT22;9943;54.378;18.604;2022-10-16T18:02:10;14.60;99.90
17240;DHT22;9943;54.378;18.604;2022-10-16T18:05:01;14.60;99.90